Main page
METAR-TAF:

METAR-TAF

Airports :

Berlin Brandenburg Airport

Berlin, Germany

latitude: 52-23N, longitude: 013-31E, elevation: 47 m

Current weather observation

The report was made 29 minutes ago, at 22:20 UTC
Wind 8 kt from the North/Northeast
Temperature 19°C
Humidity 60%
Pressure 1027 hPa
Visibility 10 km or more
no clouds below 1500 m and no cumulonimbus

METAR: EDDB 092220Z AUTO 03008KT CAVOK 19/11 Q1027 NOSIG

Time: 00:49 (22:49 UTC)

Forecast

The report was made 5 hours and 49 minutes ago, at 17:00 UTC
Forecast valid from 09 at 18 UTC to 10 at 18 UTC
Wind 6 kt from the North/Northeast
Visibility 10 km or more
no clouds below 1500 m and no cumulonimbus

TAF: EDDB 091700Z 0918/1018 03006KT CAVOK

Weather observations and forecasts of more than 4000 airports (METAR and TAF reports).

The available stations are represented by yellow and red dots on the map.

Hover mouse over dot to see the name of the station.

Then click to see weather observations and forecasts.

To change the map : click on the green buttons with a black cross to zoom in, on the green button with a dash to zoom out, or on the green arrows for adjacent maps.


METAR-TAF: